VHHHZSAM

Guest
Details From VHHH - Hong Kong Intl
To ZSAM - Gaoqi
Flight Number -
Tags Generated
Created
Modified
Stats Distance 270 nm / 499 km
Max Altitude 0 ft / 0 m
Waypoints 3
Social Downloads 0
Likes 0
Share VATSIM

Download

Looking for another format? Having issues loading an existing format? Contact us
Advertisement - Login to hide

Notes

Generated

Route

VHHH XMN ZSAM

ID Type Via Altitude Latitude Longitude Leg Dist Tot Dist Heading (true) Name
O VHHH APT - 0 ft / 0 m 22.29628˚ 113.89799˚ - 0 nm - -
XMN VOR - 0 ft / 0 m 24.54167˚ 118.12167˚ 268 nm 268 nm 59° / 61° XIAMEN VOR-DME
O ZSAM APT - 0 ft / 0 m 24.53459˚ 118.11452˚ 0 nm 269 nm 223° / 223° -

Altitude Profile

Advertisement - Login to hide

Weather


0- 5 10 15 20 25 30 35+ Temperature / ° C

Clouds and Precipitation
Forecast for 2018-05-23 12:00 UTC. Updated 17 minutes ago

Ground ~20,000 ft ~40,000 ft Winds

VHHH

Details ICAO VHHH (HKG)
Name Hong Kong Intl
Region Hong Kong
Timezone Unknown (UTC+0.0)
Stats Elevation 28 ft / 9 m (AMSL)
Location 22.308995° 113.914610°
Runways 2
Magnetic Variation 2.850° W

METAR

VHHH 230930Z 23012KT 9999 FEW023 34/24 Q1007 NOSIG

Decode

TAF

TAF VHHH 230500Z 2306/2412 VRB05KT 9999 FEW030 TX36/2307Z TX34/2406Z TN28/2321Z TEMPO 2306/2312 21010KT TEMPO 2403/2412 21010KT

Decode

Departure Runways

ID Width Length Bearing (true) Bearing (mag) Surface Threshold Offset Overrun Length
07L 197 ft / 60 m 12,457 ft / 3,797 m 70.79° 73.64° Asphalt 564 ft / 172 m 866 ft / 264 m
07R 197 ft / 60 m 12,458 ft / 3,797 m 70.79° 73.64° Asphalt 525 ft / 160 m 886 ft / 270 m
25L 197 ft / 60 m 12,458 ft / 3,797 m 250.80° 253.65° Asphalt 0 ft / 0 m 840 ft / 256 m
25R 197 ft / 60 m 12,457 ft / 3,797 m 250.80° 253.65° Asphalt 581 ft / 177 m 860 ft / 262 m

ZSAM

Details ICAO ZSAM (XMN)
Name GAOQI
Region China
Timezone Asia/Shanghai (UTC+8.0)
Stats Elevation 59 ft / 18 m (AMSL)
Location 24.544000° 118.127742°
Runways 1
Magnetic Variation 3.936° W

METAR

ZSAM 230900Z 09006MPS 070V130 9999 SCT015 FEW015TCU 29/25 Q1009 NOSIG

Decode

TAF

Not found

Destination Runways

ID Width Length Bearing (true) Bearing (mag) Surface Threshold Offset Overrun Length
05 148 ft / 45 m 11,147 ft / 3,398 m 51.96° 55.90° Asphalt 490 ft / 149 m 110 ft / 34 m
23 148 ft / 45 m 11,147 ft / 3,398 m 231.97° 235.91° Asphalt 660 ft / 201 m 190 ft / 58 m

Approach Navaids

Runway Type Ident Frequency Range Bearing (true) Bearing (mag) Slope Elevation
05 Localiser IWF 110.30 MHz 18 nm / 33 km 51.44° 55.38° - 85 ft / 26 m (AMSL)
05 Glidescope IWF 110.30 MHz 10 nm / 19 km 51.96° 55.90° 3.00° 85 ft / 26 m (AMSL)
05 DME IWF 110.30 MHz 18 nm / 33 km - - - 85 ft / 26 m (AMSL)
23 Localiser IKK 109.70 MHz 18 nm / 33 km 231.94° 235.87° - 85 ft / 26 m (AMSL)
23 Glidescope IKK 109.70 MHz 10 nm / 19 km 231.96° 235.90° 3.00° 85 ft / 26 m (AMSL)
23 DME IKK 109.70 MHz 18 nm / 33 km - - - 85 ft / 26 m (AMSL)

Popular Alternatives